Time;durP1;ratioP1;P1;durP2;ratioP2;P2;SDS_P1;SDS_P2;PMS_P1;PMS_P2;Temp;Humidity;BMP_temperature;BMP_pressure;BME280_temperature;BME280_humidity;BME280_pressure;Samples;Min_cycle;Max_cycle;Signal;HPM_P1;HPM_P2
2021/12/25 00:01:10;;;;;;;17.03;13.43;;;9.20;99.90;;;9.29;73.95;96463.38;5007637;28;20042;-49
2021/12/25 00:03:38;;;;;;;17.80;13.43;;;9.20;99.90;;;9.29;74.02;96463.38;5007857;28;20348;-45
2021/12/25 00:06:07;;;;;;;19.23;13.43;;;9.20;99.90;;;9.29;74.07;96461.53;5007225;28;20042;-47
2021/12/25 00:08:35;;;;;;;18.37;13.13;;;9.10;99.90;;;9.28;74.26;96459.88;5007167;28;20060;-46
2021/12/25 00:11:07;;;;;;;16.17;11.97;;;9.10;99.90;;;9.25;74.06;96463.72;5007594;28;20050;-46
2021/12/25 00:13:36;;;;;;;19.83;12.77;;;9.00;99.90;;;9.22;73.99;96461.41;5007808;28;20058;-45
2021/12/25 00:16:05;;;;;;;19.30;12.97;;;9.00;99.90;;;9.21;73.86;96462.44;5008417;28;20442;-46
2021/12/25 00:18:38;;;;;;;17.00;11.80;;;9.00;99.90;;;9.20;73.90;96460.78;5007588;28;20060;-45
2021/12/25 00:21:08;;;;;;;22.42;14.70;;;9.00;99.90;;;9.18;73.76;96462.78;5009444;28;20050;-46
2021/12/25 00:23:37;;;;;;;22.03;13.63;;;9.00;99.90;;;9.18;74.27;96465.44;5007690;28;20104;-46
2021/12/25 00:26:22;;;;;;;23.33;14.60;;;9.00;99.90;;;9.18;74.26;96465.44;5007095;28;20045;-45
2021/12/25 00:28:59;;;;;;;23.37;13.47;;;9.00;99.90;;;9.16;74.15;96463.97;5006905;28;20064;-45
2021/12/25 00:31:43;;;;;;;22.20;13.37;;;8.90;99.90;;;9.15;74.24;96463.16;5039216;28;20061;-46
2021/12/25 00:34:14;;;;;;;;;;;8.90;99.90;;;9.11;73.74;96467.19;5007355;28;20050;-46
2021/12/25 00:36:41;;;;;;;22.97;14.10;;;8.90;99.90;;;9.15;73.95;96463.16;5007797;28;19917;-47
2021/12/25 00:39:10;;;;;;;19.93;13.27;;;8.90;99.90;;;9.17;74.29;96460.31;5006762;28;20063;-46
2021/12/25 00:41:40;;;;;;;26.27;13.30;;;9.00;99.90;;;9.18;74.27;96456.66;5006541;28;20049;-45
2021/12/25 00:44:08;;;;;;;18.53;11.53;;;9.00;99.90;;;9.18;74.31;96459.31;5006796;28;20042;-47
2021/12/25 00:46:36;;;;;;;20.97;14.23;;;9.00;99.90;;;9.18;73.91;96460.13;5006145;28;20050;-46
2021/12/25 00:49:04;;;;;;;18.97;14.17;;;9.00;99.90;;;9.17;73.89;96458.50;5007846;28;20079;-46
2021/12/25 00:51:31;;;;;;;19.33;13.73;;;9.00;99.90;;;9.19;74.00;96443.22;5006078;28;20336;-45
2021/12/25 00:54:02;;;;;;;19.50;12.93;;;9.10;99.90;;;9.20;74.23;96439.53;5006833;28;20276;-46
2021/12/25 00:56:30;;;;;;;22.47;13.33;;;9.10;99.90;;;9.20;74.13;96444.03;5007721;28;20345;-46
2021/12/25 00:58:58;;;;;;;22.00;12.57;;;9.00;99.90;;;9.19;74.00;96440.56;5006004;28;20054;-46
2021/12/25 01:01:25;;;;;;;20.90;14.53;;;9.00;99.90;;;9.16;74.11;96440.91;5005990;28;20050;-45
2021/12/25 01:03:54;;;;;;;21.33;15.03;;;9.00;99.90;;;9.16;74.08;96435.59;5006957;28;20445;-46
2021/12/25 01:06:21;;;;;;;19.80;14.23;;;9.00;99.90;;;9.18;74.10;96433.56;5022421;28;20061;-45
2021/12/25 01:08:50;;;;;;;16.10;11.43;;;9.00;99.90;;;9.18;73.86;96430.91;5021255;28;20354;-45
2021/12/25 01:11:24;;;;;;;16.90;11.80;;;9.00;99.90;;;9.18;74.02;96438.06;5006777;28;20060;-45
2021/12/25 01:14:00;;;;;;;15.23;11.10;;;9.00;99.90;;;9.19;74.24;96432.59;5022184;28;20054;-45
2021/12/25 01:22:54;;;;;;;13.57;9.60;;;9.00;99.90;;;9.16;74.11;96429.47;5038473;28;20060;-45
2021/12/25 01:30:24;;;;;;;17.90;10.90;;;8.90;99.90;;;9.15;74.17;96422.50;5038891;28;20054;-46
2021/12/25 01:47:55;;;;;;;14.25;11.10;;;9.00;99.90;;;9.12;74.11;96409.59;5006800;28;20049;-46
2021/12/25 01:50:27;;;;;;;16.83;9.90;;;8.90;99.90;;;9.14;74.12;96410.25;5039431;28;20075;-45
2021/12/25 01:52:56;;;;;;;14.37;10.27;;;8.90;99.90;;;9.15;74.09;96406.56;5005966;28;20053;-46
2021/12/25 01:55:28;;;;;;;17.13;9.73;;;9.00;99.90;;;9.16;74.30;96410.88;5005570;28;20054;-45
2021/12/25 01:58:00;;;;;;;26.53;14.70;;;9.00;99.90;;;9.15;74.05;96410.06;5007160;28;20053;-45
2021/12/25 02:00:40;;;;;;;29.87;14.47;;;8.90;99.90;;;9.13;73.85;96412.06;5006609;28;20271;-45
2021/12/25 02:03:11;;;;;;;30.20;14.83;;;9.00;99.90;;;9.10;74.14;96414.25;5010065;28;20060;-45
2021/12/25 02:05:39;;;;;;;19.87;11.87;;;8.80;99.90;;;9.06;74.13;96411.16;5010476;28;20042;-45
2021/12/25 02:08:25;;;;;;;18.00;10.83;;;8.80;99.90;;;9.06;74.29;96419.09;5025186;28;20272;-49
2021/12/25 02:10:55;;;;;;;22.77;12.37;;;8.80;99.90;;;9.06;74.42;96413.81;5008567;28;20419;-46
2021/12/25 02:13:24;;;;;;;15.93;9.90;;;8.80;99.90;;;9.04;74.35;96421.94;5027356;28;20049;-48
2021/12/25 02:15:55;;;;;;;21.17;12.00;;;8.80;99.90;;;9.02;74.32;96407.22;5041432;28;20061;-47
2021/12/25 02:21:10;;;;;;;15.47;9.30;;;8.80;99.90;;;8.99;74.23;96411.03;5012223;28;20042;-45
2021/12/25 02:23:39;;;;;;;15.47;10.23;;;8.80;99.90;;;8.97;74.12;96406.91;5025227;28;20363;-45
2021/12/25 02:26:08;;;;;;;15.07;10.33;;;8.70;99.90;;;8.94;74.07;96407.28;5025425;28;20064;-45
2021/12/25 02:28:37;;;;;;;15.17;10.40;;;8.70;99.90;;;8.94;74.31;96415.25;5025383;28;20360;-45
2021/12/25 02:31:10;;;;;;;17.60;11.90;;;8.70;99.90;;;8.88;74.41;96406.19;5043677;28;20084;-47
2021/12/25 02:33:39;;;;;;;18.00;10.77;;;8.60;99.90;;;8.86;74.47;96395.75;5009720;28;20068;-45
2021/12/25 02:36:09;;;;;;;16.07;11.60;;;8.50;99.90;;;8.87;74.58;96392.06;5009854;28;20218;-45
2021/12/25 02:38:40;;;;;;;16.03;10.80;;;8.60;99.90;;;8.85;74.70;96394.09;5024123;28;20391;-46
2021/12/25 02:41:09;;;;;;;18.40;10.73;;;8.60;99.90;;;8.85;74.78;96385.31;5009751;28;20259;-46
2021/12/25 02:43:38;;;;;;;12.83;10.10;;;8.60;99.90;;;8.86;74.64;96395.75;5007838;28;20356;-46
2021/12/25 02:46:06;;;;;;;16.77;10.57;;;8.50;99.90;;;8.85;74.46;96380.81;5008234;28;20057;-45
2021/12/25 02:48:40;;;;;;;13.50;10.13;;;8.50;99.90;;;8.86;74.66;96374.50;5008175;28;20247;-45
2021/12/25 02:51:10;;;;;;;;;;;8.60;99.90;;;8.79;73.90;96376.22;5026537;28;20053;-45
2021/12/25 02:53:39;;;;;;;13.17;8.30;;;8.50;99.90;;;8.82;74.27;96365.28;5008371;28;19932;-47
2021/12/25 02:56:08;;;;;;;13.17;8.27;;;8.50;99.90;;;8.84;74.59;96373.03;5008319;28;20080;-48
2021/12/25 02:58:39;;;;;;;12.57;9.40;;;8.50;99.90;;;8.82;74.59;96365.28;5025000;28;20060;-47
2021/12/25 03:01:16;;;;;;;12.77;9.43;;;8.50;99.90;;;8.80;74.88;96359.31;5041650;28;20052;-44
2021/12/25 03:03:46;;;;;;;13.93;8.60;;;8.50;99.90;;;8.79;74.77;96352.34;5007736;28;20068;-45
2021/12/25 03:06:14;;;;;;;13.30;9.63;;;8.50;99.90;;;8.80;74.81;96367.28;5024175;28;20056;-47
2021/12/25 03:08:43;;;;;;;11.83;8.53;;;8.50;99.90;;;8.80;74.70;96369.09;5022661;28;20071;-45
2021/12/25 03:11:15;;;;;;;11.67;7.90;;;8.50;99.90;;;8.74;74.85;96370.63;5025869;28;20071;-45
2021/12/25 03:13:56;;;;;;;14.00;8.20;;;8.50;99.90;;;8.72;74.88;96370.00;5023422;28;20064;-49
2021/12/25 03:16:26;;;;;;;12.77;8.23;;;8.40;99.90;;;8.74;75.08;96373.28;5039947;28;20060;-46
2021/12/25 03:18:56;;;;;;;13.47;9.57;;;8.50;99.90;;;8.74;74.84;96373.28;5026193;28;20256;-46
2021/12/25 03:21:24;;;;;;;12.03;8.93;;;8.50;99.90;;;8.75;75.04;96382.91;5004109;28;20054;-47
2021/12/25 03:23:54;;;;;;;12.17;8.27;;;8.50;99.90;;;8.76;74.81;96387.22;4989006;28;20057;-47
2021/12/25 03:26:22;;;;;;;11.30;7.97;;;8.50;99.90;;;8.78;75.02;96382.56;4988334;28;20076;-46
2021/12/25 03:28:53;;;;;;;13.07;7.63;;;8.50;99.90;;;8.80;74.88;96380.56;5020569;28;20062;-46
2021/12/25 03:31:21;;;;;;;10.93;7.80;;;8.50;99.90;;;8.81;74.92;96376.88;4989166;28;20061;-46
2021/12/25 03:33:54;;;;;;;11.97;7.47;;;8.60;99.90;;;8.80;74.81;96377.91;4986482;28;20073;-46
2021/12/25 03:36:23;;;;;;;10.17;7.73;;;8.50;99.90;;;8.81;75.11;96378.72;4989568;28;20062;-47
2021/12/25 03:38:51;;;;;;;10.10;7.70;;;8.50;99.90;;;8.81;75.01;96374.22;4971846;28;20062;-46
2021/12/25 03:41:20;;;;;;;10.50;7.00;;;8.60;99.90;;;8.81;74.89;96381.38;4988533;28;20139;-46
2021/12/25 03:43:49;;;;;;;10.27;6.77;;;8.60;99.90;;;8.82;75.07;96381.19;5004381;28;20268;-46
2021/12/25 03:46:18;;;;;;;11.03;7.00;;;8.60;99.90;;;8.82;74.84;96385.66;5020623;28;20051;-49
2021/12/25 03:59:52;;;;;;;12.07;7.50;;;8.60;99.90;;;8.81;75.14;96374.22;5004648;28;20042;-47
2021/12/25 04:02:26;;;;;;;11.77;6.80;;;8.50;99.90;;;8.81;74.98;96368.91;4988205;28;20058;-48
2021/12/25 04:04:56;;;;;;;11.00;7.33;;;8.50;99.90;;;8.82;75.21;96365.28;5019070;28;20058;-48
2021/12/25 04:09:53;;;;;;;9.40;7.10;;;8.60;99.90;;;8.86;74.90;96360.44;5005813;28;20068;-47
2021/12/25 04:12:21;;;;;;;10.50;7.23;;;8.60;99.90;;;8.85;75.01;96348.16;4987844;28;20363;-46
2021/12/25 04:14:49;;;;;;;10.23;6.30;;;8.60;99.90;;;8.87;74.88;96349.59;5002567;28;20892;-47
2021/12/25 04:17:18;;;;;;;7.93;6.00;;;8.60;99.90;;;8.90;75.00;96344.94;5001948;28;20054;-46
2021/12/25 04:19:46;;;;;;;10.07;6.03;;;8.70;99.90;;;8.89;75.22;96341.47;5020421;28;20058;-47
2021/12/25 04:22:27;;;;;;;8.38;5.45;;;8.60;99.90;;;8.87;75.04;96341.66;4987736;28;20442;-46
2021/12/25 04:24:55;;;;;;;7.80;5.60;;;8.60;99.90;;;8.87;74.82;96339.00;5019529;28;20050;-46
2021/12/25 04:27:23;;;;;;;8.57;5.07;;;8.60;99.90;;;8.84;75.10;96344.69;4988166;28;20050;-46
2021/12/25 04:30:04;;;;;;;8.13;5.30;;;8.60;99.90;;;8.83;74.99;96340.38;5020868;28;20062;-46
2021/12/25 05:06:25;;;;;;;5.10;3.60;;;8.30;99.90;;;8.60;75.37;96303.28;4996549;28;20344;-45
2021/12/25 05:08:55;;;;;;;6.80;4.20;;;8.30;99.90;;;8.61;75.36;96302.28;5019759;28;20054;-45
2021/12/25 05:11:23;;;;;;;4.97;3.83;;;8.30;99.90;;;8.61;75.10;96309.44;4988414;28;20062;-45
2021/12/25 05:13:54;;;;;;;4.13;2.97;;;8.30;99.90;;;8.61;75.39;96312.09;4987014;28;20401;-50
2021/12/25 05:16:44;;;;;;;4.57;3.03;;;8.30;99.90;;;8.61;75.14;96310.25;5018072;28;20361;-45
2021/12/25 05:19:13;;;;;;;5.23;3.60;;;8.30;99.90;;;8.61;75.34;96310.25;5003324;28;20064;-50
2021/12/25 05:21:41;;;;;;;5.23;3.40;;;8.30;99.90;;;8.61;75.14;96314.75;4987851;28;20054;-46
2021/12/25 05:24:09;;;;;;;5.17;3.53;;;8.30;99.90;;;8.59;75.18;96308.78;5001139;28;20245;-46
2021/12/25 05:26:43;;;;;;;4.47;3.17;;;8.30;99.90;;;8.56;75.13;96304.66;4986334;28;20263;-46
2021/12/25 05:29:11;;;;;;;5.00;2.97;;;8.30;99.90;;;8.54;75.44;96300.53;5019369;28;20069;-47
2021/12/25 05:31:39;;;;;;;4.63;2.83;;;8.30;99.90;;;8.56;75.44;96303.84;4986929;28;20062;-46
2021/12/25 05:34:16;;;;;;;4.90;2.93;;;8.30;99.90;;;8.56;75.52;96302.00;5002603;28;20364;-48
2021/12/25 05:36:58;;;;;;;4.50;2.10;;;8.30;99.90;;;8.57;75.62;96311.63;5001850;28;20065;-49
2021/12/25 05:39:36;;;;;;;2.40;1.87;;;8.30;99.90;;;8.56;75.50;96309.97;4992446;28;20060;-50
2021/12/25 05:42:05;;;;;;;2.60;2.17;;;8.30;99.90;;;8.56;75.63;96307.31;4989464;28;20050;-48
2021/12/25 05:44:33;;;;;;;2.33;1.70;;;8.30;99.90;;;8.54;75.46;96306.66;5006077;28;20248;-46
2021/12/25 05:47:09;;;;;;;2.00;1.40;;;8.30;99.90;;;8.55;75.54;96307.47;4989960;28;20348;-46
2021/12/25 05:49:43;;;;;;;2.45;1.92;;;8.30;99.90;;;8.56;75.68;96304.66;5024133;28;20229;-49
2021/12/25 05:52:15;;;;;;;2.47;1.80;;;8.30;99.90;;;8.55;75.68;96299.53;4990163;28;20369;-46
2021/12/25 05:55:05;;;;;;;3.90;2.23;;;8.30;99.90;;;8.54;75.88;96296.06;4988023;28;20061;-48
2021/12/25 05:57:41;;;;;;;2.90;1.77;;;8.30;99.90;;;8.57;75.93;96294.88;5023382;28;20054;-47
2021/12/25 06:00:36;;;;;;;3.10;2.03;;;8.40;99.90;;;8.61;75.60;96298.81;5006789;28;20061;-45
2021/12/25 06:03:04;;;;;;;4.80;2.80;;;8.40;99.90;;;8.62;75.89;96295.16;5022916;28;20526;-47
2021/12/25 06:05:39;;;;;;;3.37;2.23;;;8.40;99.90;;;8.63;75.88;96307.44;5008206;28;20403;-46
2021/12/25 06:08:07;;;;;;;2.60;1.70;;;8.40;99.90;;;8.65;75.67;96306.22;4991312;28;20048;-49
2021/12/25 06:10:35;;;;;;;1.73;1.20;;;8.50;99.90;;;8.69;75.79;96313.84;5022364;28;20060;-45
2021/12/25 06:13:03;;;;;;;1.23;1.03;;;8.50;99.90;;;8.71;75.91;96314.47;4991747;28;20073;-45
2021/12/25 06:15:38;;;;;;;1.17;0.70;;;8.50;99.90;;;8.73;75.97;96313.28;5021938;28;20241;-48
2021/12/25 06:18:15;;;;;;;2.47;1.20;;;8.60;99.90;;;8.76;75.69;96314.72;5022901;28;20057;-49
2021/12/25 06:20:54;;;;;;;1.63;1.47;;;8.60;99.90;;;8.77;75.95;96311.91;4990043;28;20062;-46
2021/12/25 06:23:45;;;;;;;1.93;1.00;;;8.60;99.90;;;8.78;75.80;96315.38;4993046;28;20171;-46
2021/12/25 06:26:51;;;;;;;1.23;0.90;;;8.70;99.90;;;8.83;75.61;96310.34;4989982;28;20064;-47
2021/12/25 06:29:39;;;;;;;1.87;1.13;;;8.70;99.90;;;8.87;75.64;96316.94;4989521;28;20046;-48
2021/12/25 06:32:19;;;;;;;1.27;1.10;;;8.80;99.90;;;8.92;75.58;96316.38;5022162;28;20229;-48
2021/12/25 06:34:57;;;;;;;2.10;1.53;;;8.80;99.90;;;8.95;75.57;96313.38;5021170;28;20060;-48
2021/12/25 06:37:46;;;;;;;2.83;1.30;;;8.90;99.90;;;8.97;75.62;96311.34;4988665;28;20055;-46
2021/12/25 06:40:26;;;;;;;1.15;0.90;;;8.90;99.90;;;8.96;75.61;96304.41;4989913;28;20073;-47
2021/12/25 06:42:55;;;;;;;2.77;1.80;;;8.80;99.90;;;8.97;75.30;96317.47;5022430;28;20377;-46
2021/12/25 06:45:23;;;;;;;2.50;1.90;;;8.90;99.90;;;8.93;75.55;96324.16;5023637;28;20054;-47
2021/12/25 06:47:51;;;;;;;2.20;1.67;;;8.80;99.90;;;8.92;75.54;96324.34;5004543;28;20046;-48
2021/12/25 06:50:47;;;;;;;2.07;1.53;;;8.80;99.90;;;8.94;75.34;96319.72;4990478;28;20058;-46
2021/12/25 06:53:34;;;;;;;2.00;1.43;;;8.80;99.90;;;8.96;75.54;96323.81;5021711;28;20065;-47
2021/12/25 06:56:10;;;;;;;3.93;2.00;;;8.70;99.90;;;8.95;75.59;96321.34;4987736;28;20066;-46
2021/12/25 06:58:59;;;;;;;2.33;1.67;;;8.80;99.90;;;8.95;75.39;96327.47;4989077;28;20058;-46
2021/12/25 07:01:28;;;;;;;2.23;1.80;;;8.80;99.90;;;8.93;75.86;96326.81;5005178;28;20061;-46
2021/12/25 07:03:56;;;;;;;3.03;2.00;;;8.80;99.90;;;8.94;75.65;96333.78;5005451;28;20239;-47
2021/12/25 07:06:59;;;;;;;2.70;2.00;;;8.90;99.90;;;8.94;75.81;96330.31;4990118;28;20345;-47
2021/12/25 07:09:38;;;;;;;2.70;2.03;;;8.80;99.90;;;8.93;75.65;96344.59;4990455;28;20042;-48
2021/12/25 07:12:39;;;;;;;4.63;2.10;;;8.80;99.90;;;8.92;75.89;96340.28;5020940;28;20058;-47
2021/12/25 07:15:27;;;;;;;3.47;2.00;;;8.80;99.90;;;8.89;75.95;96349.44;5008154;28;20068;-47
2021/12/25 07:18:20;;;;;;;4.27;3.00;;;8.80;99.90;;;8.87;75.98;96346.13;5020066;28;20054;-47
2021/12/25 07:20:55;;;;;;;3.67;2.37;;;8.80;99.90;;;8.90;76.25;96355.56;4987895;28;20050;-47
2021/12/25 07:23:36;;;;;;;2.53;1.90;;;8.80;99.90;;;8.87;76.11;96346.94;5021836;28;20435;-48
2021/12/25 07:26:17;;;;;;;4.10;2.30;;;8.90;99.90;;;8.91;76.20;96351.91;5021389;28;20280;-48
2021/12/25 07:29:00;;;;;;;2.70;2.10;;;8.80;99.90;;;8.93;75.69;96348.06;4987670;28;20345;-46
2021/12/25 07:31:28;;;;;;;3.83;2.10;;;8.90;99.90;;;8.96;76.08;96347.69;4990773;28;20057;-49
2021/12/25 07:33:56;;;;;;;3.23;2.07;;;8.90;99.90;;;8.98;76.00;96353.66;4989174;28;20077;-47
2021/12/25 07:36:25;;;;;;;2.83;2.37;;;8.90;99.90;;;9.00;75.94;96361.44;4989066;28;20058;-46
2021/12/25 07:38:54;;;;;;;2.67;2.30;;;9.00;99.90;;;9.01;75.94;96361.22;4988547;28;20060;-46
2021/12/25 07:41:22;;;;;;;2.93;2.03;;;8.90;99.90;;;8.98;76.22;96363.44;4989422;28;20046;-49
2021/12/25 07:43:50;;;;;;;3.87;2.20;;;8.90;99.90;;;8.99;76.03;96375.72;4988979;28;20273;-47
2021/12/25 07:46:39;;;;;;;2.63;2.03;;;8.90;99.90;;;9.01;76.21;96371.03;4989221;28;20062;-46
2021/12/25 07:49:07;;;;;;;2.80;2.20;;;8.90;99.90;;;9.01;75.97;96371.03;4988372;28;20046;-46
2021/12/25 07:51:34;;;;;;;3.50;2.50;;;9.00;99.90;;;9.00;76.40;96372.06;4989262;28;20058;-48
2021/12/25 07:54:02;;;;;;;7.03;3.37;;;9.00;99.90;;;9.00;76.22;96372.88;4990335;28;20068;-45
2021/12/25 07:56:30;;;;;;;5.03;3.00;;;9.00;99.90;;;9.00;76.31;96378.19;4988024;28;20054;-46
2021/12/25 07:58:58;;;;;;;5.77;2.93;;;9.00;99.90;;;9.03;76.12;96377.84;4989410;28;20054;-47
2021/12/25 08:01:26;;;;;;;6.93;3.47;;;9.00;99.90;;;9.01;76.61;96381.66;4988765;28;20057;-46
2021/12/25 08:03:54;;;;;;;4.30;3.10;;;9.00;99.90;;;9.01;76.54;96389.63;4988428;28;20060;-46
2021/12/25 08:06:22;;;;;;;5.87;3.23;;;9.00;99.90;;;8.99;76.39;96392.44;4987985;28;20058;-47
2021/12/25 08:08:54;;;;;;;8.20;3.83;;;9.00;99.90;;;8.97;76.46;96386.50;4988164;28;20047;-46
2021/12/25 08:11:22;;;;;;;4.10;2.80;;;9.00;99.90;;;8.94;77.05;96388.72;4988241;28;20060;-47
2021/12/25 08:13:50;;;;;;;5.10;3.53;;;9.00;99.90;;;8.98;76.67;96392.66;4988624;28;20058;-47
2021/12/25 08:16:18;;;;;;;6.27;3.80;;;9.00;99.90;;;9.03;76.49;96390.25;4988257;28;20084;-46
2021/12/25 08:18:46;;;;;;;5.33;3.53;;;9.00;99.90;;;9.07;76.71;96391.53;4988562;28;20054;-44
2021/12/25 08:21:32;;;;;;;5.43;3.50;;;9.10;99.90;;;9.09;76.77;96386.88;4993334;28;20054;-44
2021/12/25 08:24:19;;;;;;;4.93;3.50;;;9.10;99.90;;;9.10;76.77;96385.88;4990617;28;20056;-45
2021/12/25 08:27:25;;;;;;;5.40;3.57;;;9.10;99.90;;;9.10;76.49;96391.19;5045174;28;20048;-45
2021/12/25 08:30:22;;;;;;;5.47;2.77;;;9.10;99.90;;;9.04;76.54;96399.88;5030035;28;20057;-46
2021/12/25 08:33:22;;;;;;;3.97;2.80;;;9.10;99.90;;;9.04;76.50;96399.88;4992763;28;20062;-45
2021/12/25 08:36:09;;;;;;;4.27;2.63;;;9.10;99.90;;;9.01;76.72;96400.22;4986888;28;20391;-45
2021/12/25 08:38:37;;;;;;;3.40;2.30;;;9.00;99.90;;;8.98;76.74;96401.44;4988154;28;20047;-45
2021/12/25 08:41:05;;;;;;;4.83;3.00;;;9.00;99.90;;;9.00;76.57;96404.72;4987244;28;20038;-45
2021/12/25 08:43:36;;;;;;;4.10;2.93;;;9.00;99.90;;;9.01;76.73;96401.06;4987175;28;20048;-44
2021/12/25 08:46:14;;;;;;;4.83;2.70;;;9.00;99.90;;;9.02;76.63;96408.03;4988002;28;20358;-45
2021/12/25 08:48:42;;;;;;;4.53;3.00;;;9.00;99.90;;;9.04;76.57;96407.84;4987801;28;20438;-45
2021/12/25 08:51:10;;;;;;;6.83;3.60;;;9.10;99.90;;;9.05;76.53;96409.47;4988773;28;20064;-46
2021/12/25 08:53:38;;;;;;;3.83;2.60;;;9.10;99.90;;;9.01;76.70;96413.50;4987036;28;20068;-45
2021/12/25 08:56:06;;;;;;;3.80;2.40;;;9.00;99.90;;;9.01;76.52;96418.81;4987786;28;20054;-48
2021/12/25 08:58:34;;;;;;;5.23;2.27;;;9.10;99.90;;;9.03;76.58;96417.66;4988209;28;20058;-45
2021/12/25 09:01:07;;;;;;;3.43;2.40;;;9.10;99.90;;;9.03;76.49;96420.31;5013115;28;20046;-47
2021/12/25 09:03:35;;;;;;;3.30;1.90;;;9.10;99.90;;;9.03;76.67;96432.72;5015603;28;20038;-47
2021/12/25 09:06:03;;;;;;;2.90;2.20;;;9.10;99.90;;;9.00;76.78;96420.66;5014605;28;20051;-48
2021/12/25 09:08:31;;;;;;;2.97;2.47;;;9.00;99.90;;;9.06;76.61;96433.19;5016253;28;20113;-46
2021/12/25 09:11:00;;;;;;;3.97;2.47;;;9.10;99.90;;;9.12;76.71;96425.53;5015150;28;20048;-46
2021/12/25 09:13:28;;;;;;;4.77;2.20;;;9.10;99.90;;;9.17;76.49;96433.75;5015152;28;20355;-46
2021/12/25 09:15:56;;;;;;;2.97;2.00;;;9.20;99.90;;;9.22;76.09;96424.22;5015124;28;20060;-46
2021/12/25 09:18:24;;;;;;;3.63;2.07;;;9.30;99.90;;;9.28;76.12;96430.66;5015687;28;20056;-45
2021/12/25 09:20:52;;;;;;;5.07;2.93;;;9.30;99.90;;;9.33;75.96;96438.09;5016805;28;20095;-44
2021/12/25 09:23:20;;;;;;;2.93;2.10;;;9.40;99.90;;;9.38;76.10;96441.84;5026561;28;20192;-45
2021/12/25 09:25:48;;;;;;;4.67;2.97;;;9.40;99.90;;;9.40;75.74;96444.31;5027375;28;20531;-45
2021/12/25 09:28:16;;;;;;;3.80;2.33;;;9.40;99.90;;;9.42;75.79;96447.59;5026848;28;20041;-45
2021/12/25 09:30:44;;;;;;;3.67;2.27;;;9.40;99.90;;;9.40;75.38;96445.16;5028682;28;20274;-44
2021/12/25 09:33:12;;;;;;;4.37;2.40;;;9.50;99.90;;;9.39;75.74;96451.44;5025953;28;20364;-45
2021/12/25 09:35:40;;;;;;;2.73;2.03;;;9.40;99.90;;;9.42;75.62;96456.41;5026141;28;20072;-44
2021/12/25 09:38:08;;;;;;;2.97;2.20;;;9.40;99.90;;;9.44;75.87;96459.72;5026998;28;20356;-47
2021/12/25 09:40:36;;;;;;;2.93;2.17;;;9.40;99.90;;;9.49;75.83;96453.03;5026797;28;20538;-45
2021/12/25 09:43:04;;;;;;;2.83;2.00;;;9.40;99.90;;;9.44;75.62;96459.72;5025965;28;20438;-45
2021/12/25 09:45:31;;;;;;;3.17;2.10;;;9.40;99.90;;;9.50;75.62;96462.63;5026618;28;20244;-45
2021/12/25 09:48:00;;;;;;;2.93;2.00;;;9.50;99.90;;;9.50;75.68;96462.63;5025886;28;20544;-44
2021/12/25 09:50:28;;;;;;;4.53;2.07;;;9.50;99.90;;;9.49;75.50;96455.69;5027908;28;20060;-49
2021/12/25 09:52:56;;;;;;;2.43;1.80;;;9.50;99.90;;;9.49;75.62;96455.69;5025828;28;20683;-46
2021/12/25 09:55:24;;;;;;;2.73;1.60;;;9.50;99.90;;;9.51;75.35;96461.63;5025290;28;20674;-44
2021/12/25 09:57:52;;;;;;;3.00;1.73;;;9.50;99.90;;;9.49;75.30;96458.34;5026382;28;20708;-46
2021/12/25 10:00:22;;;;;;;4.97;2.70;;;9.50;99.90;;;9.46;75.30;96455.03;5026895;28;20053;-45
2021/12/25 10:02:59;;;;;;;3.10;2.00;;;9.50;99.90;;;9.40;75.18;96450.47;5025449;28;20354;-45
2021/12/25 10:05:37;;;;;;;4.50;2.30;;;9.40;99.90;;;9.30;75.62;96457.03;5025572;28;20046;-45
2021/12/25 10:08:20;;;;;;;3.43;2.03;;;9.30;99.90;;;9.22;75.70;96449.97;5025296;28;20041;-45
2021/12/25 10:11:01;;;;;;;2.03;1.10;;;9.30;99.90;;;9.21;75.46;96446.50;5027263;28;20075;-46
2021/12/25 10:13:41;;;;;;;2.73;1.63;;;9.20;99.90;;;9.25;75.49;96441.66;5026595;28;20049;-45
2021/12/25 10:16:28;;;;;;;2.73;1.60;;;9.30;99.90;;;9.31;75.60;96445.41;5026390;28;20045;-44
2021/12/25 10:19:20;;;;;;;2.20;1.80;;;9.40;99.90;;;9.38;75.50;96443.66;5026376;28;20055;-45
2021/12/25 10:22:10;;;;;;;2.73;1.50;;;9.40;99.90;;;9.34;75.29;96443.19;5025002;28;20045;-44
2021/12/25 10:24:50;;;;;;;2.20;1.70;;;9.40;99.90;;;9.39;75.67;96451.44;5030275;28;20056;-46
2021/12/25 10:27:20;;;;;;;2.43;1.43;;;9.40;99.90;;;9.41;75.28;96444.13;5029370;28;20049;-47
2021/12/25 10:29:57;;;;;;;3.60;2.00;;;9.40;99.90;;;9.43;75.68;96441.28;5029740;28;20045;-46
2021/12/25 10:32:25;;;;;;;3.23;2.10;;;9.40;99.90;;;9.44;75.49;96434.94;5027943;28;20245;-47
2021/12/25 10:34:54;;;;;;;3.90;1.90;;;9.40;99.90;;;9.48;75.58;96438.06;5027762;28;20071;-46
2021/12/25 10:37:23;;;;;;;1.80;1.50;;;9.50;99.90;;;9.51;75.71;96441.19;5029174;28;20095;-45
2021/12/25 10:39:52;;;;;;;2.20;1.57;;;9.50;99.90;;;9.50;75.26;96447.53;5030333;28;20057;-49
2021/12/25 10:42:22;;;;;;;3.03;1.83;;;9.50;99.90;;;9.50;75.40;96444.88;5028820;28;20049;-46
2021/12/25 10:44:55;;;;;;;3.53;2.20;;;9.50;99.90;;;9.52;75.34;96450.81;5029206;28;20060;-44
2021/12/25 10:47:26;;;;;;;3.57;1.70;;;9.50;99.90;;;9.52;75.71;96444.66;5029215;28;20059;-46
2021/12/25 10:49:58;;;;;;;2.60;1.80;;;9.50;99.90;;;9.50;75.49;96434.25;5029269;28;20061;-45
2021/12/25 10:52:30;;;;;;;2.93;1.83;;;9.50;99.90;;;9.53;75.39;96433.84;5029613;28;20057;-45
2021/12/25 10:55:03;;;;;;;2.20;1.80;;;9.50;99.90;;;9.59;75.49;96433.13;5029881;28;20057;-46
2021/12/25 10:57:34;;;;;;;3.55;2.13;;;9.60;99.90;;;9.55;75.34;96437.16;5028145;28;20296;-45
2021/12/25 11:00:14;;;;;;;3.17;1.93;;;9.50;99.90;;;9.52;75.00;96429.56;5028642;28;20065;-46
2021/12/25 11:02:49;;;;;;;3.70;2.27;;;9.50;99.90;;;9.45;75.63;96426.81;5028563;28;20065;-48
2021/12/25 11:05:34;;;;;;;3.03;2.33;;;9.50;99.90;;;9.46;75.43;96422.34;5029340;28;20049;-48
2021/12/25 11:08:15;;;;;;;3.33;1.83;;;9.40;99.90;;;9.37;75.93;96426.91;5028533;28;20053;-46
2021/12/25 11:11:18;;;;;;;3.23;2.33;;;9.40;99.90;;;9.44;75.38;96426.97;5029293;28;20286;-46
2021/12/25 11:13:49;;;;;;;3.00;2.40;;;9.40;99.90;;;9.43;75.81;96428.81;5027362;28;20252;-46
2021/12/25 11:16:27;;;;;;;3.50;1.80;;;9.40;99.90;;;9.46;75.75;96427.66;5027900;28;20224;-44
2021/12/25 11:19:12;;;;;;;2.37;1.67;;;9.50;99.90;;;9.40;75.66;96421.25;5027656;28;20051;-47
2021/12/25 11:21:44;;;;;;;4.07;2.03;;;9.50;99.90;;;9.47;75.62;96426.63;5027594;28;20240;-45
2021/12/25 11:24:17;;;;;;;3.20;1.90;;;9.50;99.90;;;9.46;75.77;96428.47;5027618;28;20045;-45
2021/12/25 11:26:53;;;;;;;3.67;2.23;;;9.50;99.90;;;9.49;75.78;96426.44;5028897;28;20056;-48
2021/12/25 11:29:25;;;;;;;4.60;2.40;;;9.50;99.90;;;9.50;76.21;96422.78;5028652;28;20056;-46
2021/12/25 11:31:56;;;;;;;3.40;2.40;;;9.50;99.90;;;9.49;75.85;96427.25;5027839;28;20046;-45
2021/12/25 11:34:26;;;;;;;5.07;2.30;;;9.50;99.90;;;9.51;75.88;96417.28;5026513;28;20167;-45
2021/12/25 11:36:58;;;;;;;4.27;2.57;;;9.60;99.90;;;9.53;76.28;96425.06;5027639;28;20053;-47
2021/12/25 11:39:29;;;;;;;4.13;2.57;;;9.60;99.90;;;9.57;76.14;96418.38;5027435;28;20065;-46
2021/12/25 11:42:07;;;;;;;3.60;2.30;;;9.60;99.90;;;9.60;75.97;96418.84;5026920;28;20063;-47
2021/12/25 11:44:44;;;;;;;4.10;2.50;;;9.70;99.90;;;9.53;75.63;96411.78;5026865;28;20057;-44
2021/12/25 11:47:43;;;;;;;3.87;2.30;;;9.60;99.90;;;9.46;75.79;96409.88;5027582;28;20060;-48
2021/12/25 11:50:42;;;;;;;5.43;3.43;;;9.50;99.90;;;9.49;75.97;96413.97;5028100;28;20053;-45
2021/12/25 11:53:25;;;;;;;3.27;2.63;;;9.50;99.90;;;9.48;75.82;96411.50;5027024;28;20053;-46
2021/12/25 11:58:50;;;;;;;4.10;3.10;;;9.50;99.90;;;9.44;76.08;96409.22;5028459;28;20049;-44
2021/12/25 12:01:26;;;;;;;5.60;3.70;;;9.50;99.90;;;9.48;76.15;96409.69;5028192;28;20064;-45
2021/12/25 12:04:10;;;;;;;4.00;3.37;;;9.50;99.90;;;9.46;76.13;96407.22;5027238;28;20049;-46
2021/12/25 12:06:46;;;;;;;5.20;3.00;;;9.50;99.90;;;9.45;76.03;96416.19;5027140;28;20184;-45
2021/12/25 12:09:26;;;;;;;4.73;2.97;;;9.40;99.90;;;9.50;75.74;96410.34;5026138;28;20057;-47
2021/12/25 12:12:20;;;;;;;5.00;3.17;;;9.50;99.90;;;9.43;75.98;96401.44;5028688;28;20044;-45
2021/12/25 12:15:18;;;;;;;4.10;2.70;;;9.40;99.90;;;9.47;75.80;96416.00;5027076;28;20071;-45
2021/12/25 12:17:58;;;;;;;4.10;2.83;;;9.50;99.90;;;9.46;76.15;96409.88;5030722;28;20287;-44